sensor_id;sensor_type;location;lat;lon;timestamp;temperature;humidity
10964;DHT22;5534;48.784;9.190;2022-11-15T00:01:54;11.00;99.90
10964;DHT22;5534;48.784;9.190;2022-11-15T00:04:20;11.00;99.90
10964;DHT22;5534;48.784;9.190;2022-11-15T00:06:46;11.10;99.90
10964;DHT22;5534;48.784;9.190;2022-11-15T00:09:11;11.00;99.90
10964;DHT22;5534;48.784;9.190;2022-11-15T00:11:37;10.80;99.90
10964;DHT22;5534;48.784;9.190;2022-11-15T00:14:03;10.80;99.90
10964;DHT22;5534;48.784;9.190;2022-11-15T00:16:29;10.90;99.90
10964;DHT22;5534;48.784;9.190;2022-11-15T00:18:54;10.90;99.90
10964;DHT22;5534;48.784;9.190;2022-11-15T00:21:20;10.80;99.90
10964;DHT22;5534;48.784;9.190;2022-11-15T00:23:46;10.90;99.90
10964;DHT22;5534;48.784;9.190;2022-11-15T00:26:13;10.80;99.90
10964;DHT22;5534;48.784;9.190;2022-11-15T00:28:39;10.60;99.90
10964;DHT22;5534;48.784;9.190;2022-11-15T00:31:12;10.70;99.90
10964;DHT22;5534;48.784;9.190;2022-11-15T00:33:38;10.90;99.90
10964;DHT22;5534;48.784;9.190;2022-11-15T00:36:06;10.80;99.90
10964;DHT22;5534;48.784;9.190;2022-11-15T00:38:35;10.90;99.90
10964;DHT22;5534;48.784;9.190;2022-11-15T00:41:03;10.90;99.90
10964;DHT22;5534;48.784;9.190;2022-11-15T00:43:29;10.70;99.90
10964;DHT22;5534;48.784;9.190;2022-11-15T00:45:55;10.70;99.90
10964;DHT22;5534;48.784;9.190;2022-11-15T00:48:21;10.50;99.90
10964;DHT22;5534;48.784;9.190;2022-11-15T00:50:48;10.60;99.90
10964;DHT22;5534;48.784;9.190;2022-11-15T00:53:14;10.40;99.90
10964;DHT22;5534;48.784;9.190;2022-11-15T00:55:39;10.30;99.90
10964;DHT22;5534;48.784;9.190;2022-11-15T00:58:05;10.20;99.90
10964;DHT22;5534;48.784;9.190;2022-11-15T01:00:31;10.20;99.90
10964;DHT22;5534;48.784;9.190;2022-11-15T01:02:56;10.10;99.90
10964;DHT22;5534;48.784;9.190;2022-11-15T01:05:22;10.20;99.90
10964;DHT22;5534;48.784;9.190;2022-11-15T01:07:55;10.10;99.90
10964;DHT22;5534;48.784;9.190;2022-11-15T01:10:21;10.20;99.90
10964;DHT22;5534;48.784;9.190;2022-11-15T01:12:47;10.20;99.90
10964;DHT22;5534;48.784;9.190;2022-11-15T01:15:13;10.20;99.90
10964;DHT22;5534;48.784;9.190;2022-11-15T01:17:39;10.30;99.90
10964;DHT22;5534;48.784;9.190;2022-11-15T01:20:05;10.60;99.90
10964;DHT22;5534;48.784;9.190;2022-11-15T01:22:40;10.70;99.90
10964;DHT22;5534;48.784;9.190;2022-11-15T01:25:06;10.90;99.90
10964;DHT22;5534;48.784;9.190;2022-11-15T01:27:31;10.70;99.90
10964;DHT22;5534;48.784;9.190;2022-11-15T01:29:57;10.80;99.90
10964;DHT22;5534;48.784;9.190;2022-11-15T01:32:23;10.90;99.90
10964;DHT22;5534;48.784;9.190;2022-11-15T01:34:49;11.00;99.90
10964;DHT22;5534;48.784;9.190;2022-11-15T01:37:14;11.00;99.90
10964;DHT22;5534;48.784;9.190;2022-11-15T01:39:40;10.70;99.90
10964;DHT22;5534;48.784;9.190;2022-11-15T01:42:08;10.70;99.90
10964;DHT22;5534;48.784;9.190;2022-11-15T01:47:23;10.40;99.90
10964;DHT22;5534;48.784;9.190;2022-11-15T01:50:03;10.40;99.90
10964;DHT22;5534;48.784;9.190;2022-11-15T01:52:31;10.40;99.90
10964;DHT22;5534;48.784;9.190;2022-11-15T01:55:08;10.20;99.90
10964;DHT22;5534;48.784;9.190;2022-11-15T01:57:35;9.90;99.90
10964;DHT22;5534;48.784;9.190;2022-11-15T02:00:03;9.90;99.90
10964;DHT22;5534;48.784;9.190;2022-11-15T02:02:29;10.00;99.90
10964;DHT22;5534;48.784;9.190;2022-11-15T02:04:55;9.90;99.90
10964;DHT22;5534;48.784;9.190;2022-11-15T02:07:23;10.00;99.90
10964;DHT22;5534;48.784;9.190;2022-11-15T02:09:49;10.10;99.90
10964;DHT22;5534;48.784;9.190;2022-11-15T02:12:18;10.20;99.90
10964;DHT22;5534;48.784;9.190;2022-11-15T02:14:47;10.20;99.90
10964;DHT22;5534;48.784;9.190;2022-11-15T02:25:56;10.70;99.90
10964;DHT22;5534;48.784;9.190;2022-11-15T02:28:41;10.70;99.90
10964;DHT22;5534;48.784;9.190;2022-11-15T02:34:11;10.70;99.90
10964;DHT22;5534;48.784;9.190;2022-11-15T02:39:46;10.80;99.90
10964;DHT22;5534;48.784;9.190;2022-11-15T02:42:30;10.80;99.90
10964;DHT22;5534;48.784;9.190;2022-11-15T02:45:27;10.90;99.90
10964;DHT22;5534;48.784;9.190;2022-11-15T02:47:56;10.90;99.90
10964;DHT22;5534;48.784;9.190;2022-11-15T02:50:26;10.90;99.90
10964;DHT22;5534;48.784;9.190;2022-11-15T02:52:53;10.90;99.90
10964;DHT22;5534;48.784;9.190;2022-11-15T02:55:31;10.90;99.90
10964;DHT22;5534;48.784;9.190;2022-11-15T03:01:08;10.80;99.90
10964;DHT22;5534;48.784;9.190;2022-11-15T03:11:19;10.80;99.90
10964;DHT22;5534;48.784;9.190;2022-11-15T03:14:00;10.80;99.90
10964;DHT22;5534;48.784;9.190;2022-11-15T03:16:36;10.70;99.90
10964;DHT22;5534;48.784;9.190;2022-11-15T03:19:11;10.70;99.90
10964;DHT22;5534;48.784;9.190;2022-11-15T03:21:39;10.60;99.90
10964;DHT22;5534;48.784;9.190;2022-11-15T03:24:06;10.70;99.90
10964;DHT22;5534;48.784;9.190;2022-11-15T03:26:34;10.60;99.90
10964;DHT22;5534;48.784;9.190;2022-11-15T03:29:09;10.60;99.90
10964;DHT22;5534;48.784;9.190;2022-11-15T03:31:38;10.60;99.90
10964;DHT22;5534;48.784;9.190;2022-11-15T03:34:29;10.60;99.90
10964;DHT22;5534;48.784;9.190;2022-11-15T03:36:57;10.60;99.90
10964;DHT22;5534;48.784;9.190;2022-11-15T03:39:23;10.60;99.90
10964;DHT22;5534;48.784;9.190;2022-11-15T03:44:50;10.30;99.90
10964;DHT22;5534;48.784;9.190;2022-11-15T03:49:52;10.50;99.90
10964;DHT22;5534;48.784;9.190;2022-11-15T03:52:20;10.50;99.90
10964;DHT22;5534;48.784;9.190;2022-11-15T03:54:52;10.50;99.90
10964;DHT22;5534;48.784;9.190;2022-11-15T03:57:18;10.50;99.90
10964;DHT22;5534;48.784;9.190;2022-11-15T03:59:44;10.60;99.90
10964;DHT22;5534;48.784;9.190;2022-11-15T04:02:09;10.40;99.90
10964;DHT22;5534;48.784;9.190;2022-11-15T04:04:35;10.60;99.90
10964;DHT22;5534;48.784;9.190;2022-11-15T04:07:01;10.50;99.90
10964;DHT22;5534;48.784;9.190;2022-11-15T04:09:27;10.60;99.90
10964;DHT22;5534;48.784;9.190;2022-11-15T04:11:52;10.60;99.90
10964;DHT22;5534;48.784;9.190;2022-11-15T04:14:18;10.60;99.90
10964;DHT22;5534;48.784;9.190;2022-11-15T04:16:44;10.60;99.90
10964;DHT22;5534;48.784;9.190;2022-11-15T04:19:10;10.60;99.90
10964;DHT22;5534;48.784;9.190;2022-11-15T04:21:54;10.70;99.90
10964;DHT22;5534;48.784;9.190;2022-11-15T04:24:38;10.60;99.90
10964;DHT22;5534;48.784;9.190;2022-11-15T04:27:04;10.50;99.90
10964;DHT22;5534;48.784;9.190;2022-11-15T04:29:29;10.50;99.90
10964;DHT22;5534;48.784;9.190;2022-11-15T04:32:03;10.50;99.90
10964;DHT22;5534;48.784;9.190;2022-11-15T04:34:29;10.50;99.90
10964;DHT22;5534;48.784;9.190;2022-11-15T04:36:55;10.50;99.90
10964;DHT22;5534;48.784;9.190;2022-11-15T04:39:43;10.60;99.90
10964;DHT22;5534;48.784;9.190;2022-11-15T04:42:09;10.50;99.90
10964;DHT22;5534;48.784;9.190;2022-11-15T04:44:35;10.50;99.90
10964;DHT22;5534;48.784;9.190;2022-11-15T04:47:01;10.50;99.90
10964;DHT22;5534;48.784;9.190;2022-11-15T04:49:27;10.30;99.90
10964;DHT22;5534;48.784;9.190;2022-11-15T04:51:53;10.20;99.90
10964;DHT22;5534;48.784;9.190;2022-11-15T04:54:19;10.00;99.90
10964;DHT22;5534;48.784;9.190;2022-11-15T04:56:45;10.30;99.90
10964;DHT22;5534;48.784;9.190;2022-11-15T04:59:10;10.20;99.90
10964;DHT22;5534;48.784;9.190;2022-11-15T05:01:36;10.20;99.90
10964;DHT22;5534;48.784;9.190;2022-11-15T05:04:02;10.10;99.90
10964;DHT22;5534;48.784;9.190;2022-11-15T05:06:47;10.30;99.90
10964;DHT22;5534;48.784;9.190;2022-11-15T05:09:13;10.20;99.90
10964;DHT22;5534;48.784;9.190;2022-11-15T05:11:39;10.20;99.90
10964;DHT22;5534;48.784;9.190;2022-11-15T05:14:05;10.20;99.90
10964;DHT22;5534;48.784;9.190;2022-11-15T05:16:31;10.30;99.90
10964;DHT22;5534;48.784;9.190;2022-11-15T05:18:56;10.40;99.90
10964;DHT22;5534;48.784;9.190;2022-11-15T05:21:22;10.30;99.90
10964;DHT22;5534;48.784;9.190;2022-11-15T05:23:48;10.10;99.90
10964;DHT22;5534;48.784;9.190;2022-11-15T05:26:17;10.30;99.90
10964;DHT22;5534;48.784;9.190;2022-11-15T05:28:44;10.50;99.90
10964;DHT22;5534;48.784;9.190;2022-11-15T05:31:12;10.40;99.90
10964;DHT22;5534;48.784;9.190;2022-11-15T05:33:39;10.40;99.90
10964;DHT22;5534;48.784;9.190;2022-11-15T05:38:51;10.40;99.90
10964;DHT22;5534;48.784;9.190;2022-11-15T05:41:19;10.00;99.90
10964;DHT22;5534;48.784;9.190;2022-11-15T05:43:47;9.90;99.90
10964;DHT22;5534;48.784;9.190;2022-11-15T05:46:14;10.00;99.90
10964;DHT22;5534;48.784;9.190;2022-11-15T05:48:43;10.10;99.90
10964;DHT22;5534;48.784;9.190;2022-11-15T05:51:12;10.30;99.90
10964;DHT22;5534;48.784;9.190;2022-11-15T05:53:38;10.40;99.90
10964;DHT22;5534;48.784;9.190;2022-11-15T05:56:04;10.40;99.90
10964;DHT22;5534;48.784;9.190;2022-11-15T05:58:32;10.40;99.90
10964;DHT22;5534;48.784;9.190;2022-11-15T06:00:59;10.40;99.90
10964;DHT22;5534;48.784;9.190;2022-11-15T06:03:25;10.40;99.90
10964;DHT22;5534;48.784;9.190;2022-11-15T06:05:51;10.40;99.90
10964;DHT22;5534;48.784;9.190;2022-11-15T06:08:16;10.10;99.90
10964;DHT22;5534;48.784;9.190;2022-11-15T06:10:43;10.30;99.90
10964;DHT22;5534;48.784;9.190;2022-11-15T06:13:09;10.30;99.90
10964;DHT22;5534;48.784;9.190;2022-11-15T06:15:35;10.40;99.90
10964;DHT22;5534;48.784;9.190;2022-11-15T06:18:00;10.40;99.90
10964;DHT22;5534;48.784;9.190;2022-11-15T06:20:28;10.40;99.90
10964;DHT22;5534;48.784;9.190;2022-11-15T06:23:02;10.40;99.90
10964;DHT22;5534;48.784;9.190;2022-11-15T06:25:29;10.30;99.90
10964;DHT22;5534;48.784;9.190;2022-11-15T06:27:57;9.90;99.90
10964;DHT22;5534;48.784;9.190;2022-11-15T06:30:24;10.10;99.90
10964;DHT22;5534;48.784;9.190;2022-11-15T06:32:51;10.30;99.90
10964;DHT22;5534;48.784;9.190;2022-11-15T06:35:17;10.30;99.90
10964;DHT22;5534;48.784;9.190;2022-11-15T06:37:43;10.10;99.90
10964;DHT22;5534;48.784;9.190;2022-11-15T06:40:09;10.00;99.90
10964;DHT22;5534;48.784;9.190;2022-11-15T06:42:35;9.90;99.90
10964;DHT22;5534;48.784;9.190;2022-11-15T06:45:02;10.10;99.90
10964;DHT22;5534;48.784;9.190;2022-11-15T06:47:28;9.90;99.90
10964;DHT22;5534;48.784;9.190;2022-11-15T06:49:53;10.00;99.90
10964;DHT22;5534;48.784;9.190;2022-11-15T06:52:19;10.00;99.90
10964;DHT22;5534;48.784;9.190;2022-11-15T06:54:45;10.10;99.90
10964;DHT22;5534;48.784;9.190;2022-11-15T06:57:11;10.10;99.90
10964;DHT22;5534;48.784;9.190;2022-11-15T06:59:37;9.90;99.90
10964;DHT22;5534;48.784;9.190;2022-11-15T07:02:03;10.10;99.90
10964;DHT22;5534;48.784;9.190;2022-11-15T07:04:29;10.10;99.90
10964;DHT22;5534;48.784;9.190;2022-11-15T07:06:54;10.30;99.90
10964;DHT22;5534;48.784;9.190;2022-11-15T07:09:20;10.10;99.90
10964;DHT22;5534;48.784;9.190;2022-11-15T07:11:46;10.10;99.90
10964;DHT22;5534;48.784;9.190;2022-11-15T07:14:12;10.50;99.90
10964;DHT22;5534;48.784;9.190;2022-11-15T07:16:37;10.20;99.90
10964;DHT22;5534;48.784;9.190;2022-11-15T07:19:03;10.30;99.90
10964;DHT22;5534;48.784;9.190;2022-11-15T07:21:29;10.40;99.90
10964;DHT22;5534;48.784;9.190;2022-11-15T07:23:55;10.30;99.90
10964;DHT22;5534;48.784;9.190;2022-11-15T07:26:21;10.20;99.90
10964;DHT22;5534;48.784;9.190;2022-11-15T07:28:46;10.20;99.90
10964;DHT22;5534;48.784;9.190;2022-11-15T07:31:12;10.20;99.90
10964;DHT22;5534;48.784;9.190;2022-11-15T07:33:38;10.40;99.90
10964;DHT22;5534;48.784;9.190;2022-11-15T07:36:05;10.60;99.90
10964;DHT22;5534;48.784;9.190;2022-11-15T07:38:33;10.70;99.90
10964;DHT22;5534;48.784;9.190;2022-11-15T07:41:34;10.80;99.90
10964;DHT22;5534;48.784;9.190;2022-11-15T07:44:00;10.80;99.90
10964;DHT22;5534;48.784;9.190;2022-11-15T07:46:27;10.90;99.90
10964;DHT22;5534;48.784;9.190;2022-11-15T07:48:54;10.90;99.90
10964;DHT22;5534;48.784;9.190;2022-11-15T07:51:20;11.00;99.90
10964;DHT22;5534;48.784;9.190;2022-11-15T07:53:45;11.10;99.90
10964;DHT22;5534;48.784;9.190;2022-11-15T07:56:12;11.20;99.90
10964;DHT22;5534;48.784;9.190;2022-11-15T07:58:38;11.40;99.90
10964;DHT22;5534;48.784;9.190;2022-11-15T08:01:05;11.60;99.90
10964;DHT22;5534;48.784;9.190;2022-11-15T08:03:32;11.70;99.90
10964;DHT22;5534;48.784;9.190;2022-11-15T08:05:59;11.70;99.90
10964;DHT22;5534;48.784;9.190;2022-11-15T08:08:25;11.70;99.90
10964;DHT22;5534;48.784;9.190;2022-11-15T08:10:51;11.60;99.90
10964;DHT22;5534;48.784;9.190;2022-11-15T08:13:17;11.60;99.90
10964;DHT22;5534;48.784;9.190;2022-11-15T08:15:43;11.70;99.90
10964;DHT22;5534;48.784;9.190;2022-11-15T08:18:12;11.70;99.90
10964;DHT22;5534;48.784;9.190;2022-11-15T08:20:39;11.70;99.90
10964;DHT22;5534;48.784;9.190;2022-11-15T08:23:05;11.70;99.90
10964;DHT22;5534;48.784;9.190;2022-11-15T08:25:32;11.80;99.90
10964;DHT22;5534;48.784;9.190;2022-11-15T08:28:01;11.90;99.90
10964;DHT22;5534;48.784;9.190;2022-11-15T08:30:27;11.80;99.90
10964;DHT22;5534;48.784;9.190;2022-11-15T08:32:55;11.80;99.90
10964;DHT22;5534;48.784;9.190;2022-11-15T08:35:21;11.80;99.90
10964;DHT22;5534;48.784;9.190;2022-11-15T08:37:47;11.80;99.90
10964;DHT22;5534;48.784;9.190;2022-11-15T08:40:14;11.80;99.90
10964;DHT22;5534;48.784;9.190;2022-11-15T08:42:40;11.70;99.90
10964;DHT22;5534;48.784;9.190;2022-11-15T08:45:07;11.80;99.90
10964;DHT22;5534;48.784;9.190;2022-11-15T08:47:33;11.70;99.90
10964;DHT22;5534;48.784;9.190;2022-11-15T08:49:59;11.80;99.90
10964;DHT22;5534;48.784;9.190;2022-11-15T08:52:25;11.70;99.90
10964;DHT22;5534;48.784;9.190;2022-11-15T08:54:50;11.80;99.90
10964;DHT22;5534;48.784;9.190;2022-11-15T08:57:17;11.80;99.90
10964;DHT22;5534;48.784;9.190;2022-11-15T08:59:42;11.80;99.90
10964;DHT22;5534;48.784;9.190;2022-11-15T09:02:15;11.90;99.90
10964;DHT22;5534;48.784;9.190;2022-11-15T09:04:41;11.90;99.90
10964;DHT22;5534;48.784;9.190;2022-11-15T09:07:11;11.90;99.90
10964;DHT22;5534;48.784;9.190;2022-11-15T09:09:37;12.00;99.90
10964;DHT22;5534;48.784;9.190;2022-11-15T09:12:04;12.20;99.90
10964;DHT22;5534;48.784;9.190;2022-11-15T09:14:30;12.30;99.90
10964;DHT22;5534;48.784;9.190;2022-11-15T09:16:56;12.40;99.90
10964;DHT22;5534;48.784;9.190;2022-11-15T09:19:22;12.50;99.90
10964;DHT22;5534;48.784;9.190;2022-11-15T09:21:47;12.50;99.90
10964;DHT22;5534;48.784;9.190;2022-11-15T09:24:13;12.50;99.90
10964;DHT22;5534;48.784;9.190;2022-11-15T09:26:39;12.50;99.90
10964;DHT22;5534;48.784;9.190;2022-11-15T09:29:05;12.60;99.90
10964;DHT22;5534;48.784;9.190;2022-11-15T09:31:31;12.70;99.90
10964;DHT22;5534;48.784;9.190;2022-11-15T09:33:57;12.70;99.90
10964;DHT22;5534;48.784;9.190;2022-11-15T09:36:22;12.70;99.90
10964;DHT22;5534;48.784;9.190;2022-11-15T09:38:48;12.80;99.90
10964;DHT22;5534;48.784;9.190;2022-11-15T09:49:02;13.10;99.90
10964;DHT22;5534;48.784;9.190;2022-11-15T09:51:34;13.10;99.90
10964;DHT22;5534;48.784;9.190;2022-11-15T09:56:53;13.20;99.90
10964;DHT22;5534;48.784;9.190;2022-11-15T09:59:44;13.30;99.90
10964;DHT22;5534;48.784;9.190;2022-11-15T10:02:48;13.20;99.90
10964;DHT22;5534;48.784;9.190;2022-11-15T10:05:20;13.30;99.90
10964;DHT22;5534;48.784;9.190;2022-11-15T10:11:01;13.50;99.90
10964;DHT22;5534;48.784;9.190;2022-11-15T10:13:31;13.50;99.90
10964;DHT22;5534;48.784;9.190;2022-11-15T10:19:20;13.60;99.90
10964;DHT22;5534;48.784;9.190;2022-11-15T10:24:27;13.50;99.90
10964;DHT22;5534;48.784;9.190;2022-11-15T10:26:54;13.50;99.90
10964;DHT22;5534;48.784;9.190;2022-11-15T10:29:22;13.50;99.90
10964;DHT22;5534;48.784;9.190;2022-11-15T10:31:48;13.70;99.90
10964;DHT22;5534;48.784;9.190;2022-11-15T10:34:17;13.60;99.90
10964;DHT22;5534;48.784;9.190;2022-11-15T10:36:46;13.60;99.90
10964;DHT22;5534;48.784;9.190;2022-11-15T10:39:13;13.70;99.90
10964;DHT22;5534;48.784;9.190;2022-11-15T10:41:41;13.70;99.90
10964;DHT22;5534;48.784;9.190;2022-11-15T10:44:11;13.60;99.90
10964;DHT22;5534;48.784;9.190;2022-11-15T10:46:40;13.60;99.90
10964;DHT22;5534;48.784;9.190;2022-11-15T10:49:13;13.60;99.90
10964;DHT22;5534;48.784;9.190;2022-11-15T10:51:55;13.50;99.90
10964;DHT22;5534;48.784;9.190;2022-11-15T10:54:44;13.50;99.90
10964;DHT22;5534;48.784;9.190;2022-11-15T10:57:17;13.60;99.90
10964;DHT22;5534;48.784;9.190;2022-11-15T10:59:51;13.70;99.90
10964;DHT22;5534;48.784;9.190;2022-11-15T11:04:59;13.50;99.90
10964;DHT22;5534;48.784;9.190;2022-11-15T11:07:35;13.40;99.90
10964;DHT22;5534;48.784;9.190;2022-11-15T11:10:18;13.40;99.90
10964;DHT22;5534;48.784;9.190;2022-11-15T11:12:44;13.30;99.90
10964;DHT22;5534;48.784;9.190;2022-11-15T11:15:12;13.10;99.90
10964;DHT22;5534;48.784;9.190;2022-11-15T11:18:10;13.20;99.90
10964;DHT22;5534;48.784;9.190;2022-11-15T11:20:51;13.20;99.90
10964;DHT22;5534;48.784;9.190;2022-11-15T11:38:02;13.60;99.90
10964;DHT22;5534;48.784;9.190;2022-11-15T11:40:29;13.50;99.90
10964;DHT22;5534;48.784;9.190;2022-11-15T11:43:13;13.70;99.90
10964;DHT22;5534;48.784;9.190;2022-11-15T11:48:45;13.70;99.90
10964;DHT22;5534;48.784;9.190;2022-11-15T11:51:26;13.80;99.90
10964;DHT22;5534;48.784;9.190;2022-11-15T11:53:57;14.00;99.90
10964;DHT22;5534;48.784;9.190;2022-11-15T11:56:36;14.00;99.90
10964;DHT22;5534;48.784;9.190;2022-11-15T11:59:18;13.90;99.90
10964;DHT22;5534;48.784;9.190;2022-11-15T12:01:45;13.90;99.90
10964;DHT22;5534;48.784;9.190;2022-11-15T12:04:13;13.90;99.90
10964;DHT22;5534;48.784;9.190;2022-11-15T12:06:52;13.90;99.90
10964;DHT22;5534;48.784;9.190;2022-11-15T12:09:49;13.80;99.90
10964;DHT22;5534;48.784;9.190;2022-11-15T12:15:45;14.00;99.90
10964;DHT22;5534;48.784;9.190;2022-11-15T12:18:15;14.00;99.90
10964;DHT22;5534;48.784;9.190;2022-11-15T12:20:57;14.10;99.90
10964;DHT22;5534;48.784;9.190;2022-11-15T12:23:30;14.10;99.90
10964;DHT22;5534;48.784;9.190;2022-11-15T12:26:04;14.00;99.90
10964;DHT22;5534;48.784;9.190;2022-11-15T12:29:03;14.10;99.90
10964;DHT22;5534;48.784;9.190;2022-11-15T12:31:40;14.00;99.90
10964;DHT22;5534;48.784;9.190;2022-11-15T12:36:49;14.00;99.90
10964;DHT22;5534;48.784;9.190;2022-11-15T12:39:16;14.00;99.90
10964;DHT22;5534;48.784;9.190;2022-11-15T12:59:52;14.00;99.90
10964;DHT22;5534;48.784;9.190;2022-11-15T13:02:22;14.00;99.90
10964;DHT22;5534;48.784;9.190;2022-11-15T13:04:50;14.20;99.90
10964;DHT22;5534;48.784;9.190;2022-11-15T13:10:07;14.10;99.90
10964;DHT22;5534;48.784;9.190;2022-11-15T13:17:43;14.10;99.90
10964;DHT22;5534;48.784;9.190;2022-11-15T13:20:17;14.10;99.90
10964;DHT22;5534;48.784;9.190;2022-11-15T13:23:13;14.10;99.90
10964;DHT22;5534;48.784;9.190;2022-11-15T13:30:53;13.90;99.90
10964;DHT22;5534;48.784;9.190;2022-11-15T13:35:52;14.10;99.90
10964;DHT22;5534;48.784;9.190;2022-11-15T13:38:36;14.00;99.90
10964;DHT22;5534;48.784;9.190;2022-11-15T13:41:33;14.00;99.90
10964;DHT22;5534;48.784;9.190;2022-11-15T13:44:00;14.00;99.90
10964;DHT22;5534;48.784;9.190;2022-11-15T13:46:31;13.90;99.90
10964;DHT22;5534;48.784;9.190;2022-11-15T13:49:10;13.90;99.90
10964;DHT22;5534;48.784;9.190;2022-11-15T13:51:46;13.90;99.90
10964;DHT22;5534;48.784;9.190;2022-11-15T13:54:24;13.90;99.90
10964;DHT22;5534;48.784;9.190;2022-11-15T13:56:57;13.90;99.90
10964;DHT22;5534;48.784;9.190;2022-11-15T13:59:36;14.00;99.90
10964;DHT22;5534;48.784;9.190;2022-11-15T14:02:17;14.20;99.90
10964;DHT22;5534;48.784;9.190;2022-11-15T14:04:56;14.20;99.90
10964;DHT22;5534;48.784;9.190;2022-11-15T14:07:25;14.30;99.90
10964;DHT22;5534;48.784;9.190;2022-11-15T14:09:51;14.40;99.90
10964;DHT22;5534;48.784;9.190;2022-11-15T14:12:27;14.30;99.90
10964;DHT22;5534;48.784;9.190;2022-11-15T14:14:53;14.30;99.90
10964;DHT22;5534;48.784;9.190;2022-11-15T14:19:56;14.20;99.90
10964;DHT22;5534;48.784;9.190;2022-11-15T14:22:29;14.20;99.90
10964;DHT22;5534;48.784;9.190;2022-11-15T14:27:41;13.90;99.90
10964;DHT22;5534;48.784;9.190;2022-11-15T14:30:15;13.70;99.90
10964;DHT22;5534;48.784;9.190;2022-11-15T14:32:47;13.70;99.90
10964;DHT22;5534;48.784;9.190;2022-11-15T14:35:21;13.60;99.90
10964;DHT22;5534;48.784;9.190;2022-11-15T14:37:47;13.60;99.90
10964;DHT22;5534;48.784;9.190;2022-11-15T14:40:19;13.60;99.90
10964;DHT22;5534;48.784;9.190;2022-11-15T14:42:47;13.60;99.90
10964;DHT22;5534;48.784;9.190;2022-11-15T14:45:19;13.70;99.90
10964;DHT22;5534;48.784;9.190;2022-11-15T14:47:46;13.80;99.90
10964;DHT22;5534;48.784;9.190;2022-11-15T14:50:17;13.70;99.90
10964;DHT22;5534;48.784;9.190;2022-11-15T14:52:44;13.60;99.90
10964;DHT22;5534;48.784;9.190;2022-11-15T14:55:24;13.60;99.90
10964;DHT22;5534;48.784;9.190;2022-11-15T14:57:50;13.50;99.90
10964;DHT22;5534;48.784;9.190;2022-11-15T15:00:16;13.40;99.90
10964;DHT22;5534;48.784;9.190;2022-11-15T15:02:43;13.40;99.90
10964;DHT22;5534;48.784;9.190;2022-11-15T15:05:19;13.30;99.90
10964;DHT22;5534;48.784;9.190;2022-11-15T15:07:45;13.30;99.90
10964;DHT22;5534;48.784;9.190;2022-11-15T15:10:12;13.30;99.90
10964;DHT22;5534;48.784;9.190;2022-11-15T15:12:38;13.20;99.90
10964;DHT22;5534;48.784;9.190;2022-11-15T15:15:04;13.10;99.90
10964;DHT22;5534;48.784;9.190;2022-11-15T15:17:30;13.10;99.90
10964;DHT22;5534;48.784;9.190;2022-11-15T15:19:56;13.00;99.90
10964;DHT22;5534;48.784;9.190;2022-11-15T15:22:22;13.10;99.90
10964;DHT22;5534;48.784;9.190;2022-11-15T15:24:51;12.90;99.90
10964;DHT22;5534;48.784;9.190;2022-11-15T15:27:16;13.00;99.90
10964;DHT22;5534;48.784;9.190;2022-11-15T15:29:43;13.00;99.90
10964;DHT22;5534;48.784;9.190;2022-11-15T15:32:10;13.20;99.90
10964;DHT22;5534;48.784;9.190;2022-11-15T15:34:36;13.00;99.90
10964;DHT22;5534;48.784;9.190;2022-11-15T15:39:54;13.10;99.90
10964;DHT22;5534;48.784;9.190;2022-11-15T15:42:21;13.10;99.90
10964;DHT22;5534;48.784;9.190;2022-11-15T15:44:48;13.20;99.90
10964;DHT22;5534;48.784;9.190;2022-11-15T15:47:20;13.10;99.90
10964;DHT22;5534;48.784;9.190;2022-11-15T15:49:46;13.10;99.90
10964;DHT22;5534;48.784;9.190;2022-11-15T15:52:12;13.00;99.90
10964;DHT22;5534;48.784;9.190;2022-11-15T15:54:39;12.90;99.90
10964;DHT22;5534;48.784;9.190;2022-11-15T15:57:05;13.00;99.90
10964;DHT22;5534;48.784;9.190;2022-11-15T15:59:31;13.00;99.90
10964;DHT22;5534;48.784;9.190;2022-11-15T16:01:57;13.00;99.90
10964;DHT22;5534;48.784;9.190;2022-11-15T16:04:23;13.00;99.90
10964;DHT22;5534;48.784;9.190;2022-11-15T16:06:49;12.90;99.90
10964;DHT22;5534;48.784;9.190;2022-11-15T16:09:19;13.00;99.90
10964;DHT22;5534;48.784;9.190;2022-11-15T16:12:05;13.00;99.90
10964;DHT22;5534;48.784;9.190;2022-11-15T16:14:31;12.90;99.90
10964;DHT22;5534;48.784;9.190;2022-11-15T16:16:57;13.00;99.90
10964;DHT22;5534;48.784;9.190;2022-11-15T16:19:23;13.10;99.90
10964;DHT22;5534;48.784;9.190;2022-11-15T16:21:49;13.10;99.90
10964;DHT22;5534;48.784;9.190;2022-11-15T16:24:15;13.10;99.90
10964;DHT22;5534;48.784;9.190;2022-11-15T16:26:41;13.10;99.90
10964;DHT22;5534;48.784;9.190;2022-11-15T16:29:08;13.00;99.90
10964;DHT22;5534;48.784;9.190;2022-11-15T16:31:34;13.00;99.90
10964;DHT22;5534;48.784;9.190;2022-11-15T16:34:00;13.00;99.90
10964;DHT22;5534;48.784;9.190;2022-11-15T16:36:26;13.00;99.90
10964;DHT22;5534;48.784;9.190;2022-11-15T16:38:54;13.00;99.90
10964;DHT22;5534;48.784;9.190;2022-11-15T16:41:20;12.90;99.90
10964;DHT22;5534;48.784;9.190;2022-11-15T16:43:46;12.90;99.90
10964;DHT22;5534;48.784;9.190;2022-11-15T16:46:21;12.90;99.90
10964;DHT22;5534;48.784;9.190;2022-11-15T16:48:50;13.00;99.90
10964;DHT22;5534;48.784;9.190;2022-11-15T16:51:17;13.00;99.90
10964;DHT22;5534;48.784;9.190;2022-11-15T16:53:43;12.90;99.90
10964;DHT22;5534;48.784;9.190;2022-11-15T16:58:46;12.90;99.90
10964;DHT22;5534;48.784;9.190;2022-11-15T17:01:23;12.90;99.90
10964;DHT22;5534;48.784;9.190;2022-11-15T17:03:49;12.90;99.90
10964;DHT22;5534;48.784;9.190;2022-11-15T17:06:15;12.90;99.90
10964;DHT22;5534;48.784;9.190;2022-11-15T17:08:43;12.80;99.90
10964;DHT22;5534;48.784;9.190;2022-11-15T17:11:10;12.80;99.90
10964;DHT22;5534;48.784;9.190;2022-11-15T17:13:37;12.70;99.90
10964;DHT22;5534;48.784;9.190;2022-11-15T17:16:10;12.80;99.90
10964;DHT22;5534;48.784;9.190;2022-11-15T17:18:37;12.90;99.90
10964;DHT22;5534;48.784;9.190;2022-11-15T17:21:19;12.90;99.90
10964;DHT22;5534;48.784;9.190;2022-11-15T17:23:46;12.90;99.90
10964;DHT22;5534;48.784;9.190;2022-11-15T17:26:13;12.90;99.90
10964;DHT22;5534;48.784;9.190;2022-11-15T17:28:40;12.90;99.90
10964;DHT22;5534;48.784;9.190;2022-11-15T17:31:08;12.90;99.90
10964;DHT22;5534;48.784;9.190;2022-11-15T17:33:36;12.90;99.90
10964;DHT22;5534;48.784;9.190;2022-11-15T17:36:05;12.80;99.90
10964;DHT22;5534;48.784;9.190;2022-11-15T17:38:32;12.80;99.90
10964;DHT22;5534;48.784;9.190;2022-11-15T17:41:14;12.80;99.90
10964;DHT22;5534;48.784;9.190;2022-11-15T17:43:40;12.90;99.90
10964;DHT22;5534;48.784;9.190;2022-11-15T17:46:11;12.90;99.90
10964;DHT22;5534;48.784;9.190;2022-11-15T17:48:37;12.90;99.90
10964;DHT22;5534;48.784;9.190;2022-11-15T17:51:06;12.90;99.90
10964;DHT22;5534;48.784;9.190;2022-11-15T17:53:37;12.90;99.90
10964;DHT22;5534;48.784;9.190;2022-11-15T17:56:04;12.90;99.90
10964;DHT22;5534;48.784;9.190;2022-11-15T17:58:31;12.90;99.90
10964;DHT22;5534;48.784;9.190;2022-11-15T18:01:46;12.90;99.90
10964;DHT22;5534;48.784;9.190;2022-11-15T18:03:54;12.90;99.90
10964;DHT22;5534;48.784;9.190;2022-11-15T18:06:21;12.90;99.90
10964;DHT22;5534;48.784;9.190;2022-11-15T18:08:49;12.90;99.90